CheckWX is a tool to help pilots better visualize weather data.  It is not intended as a substitute for an official pre-flight weather briefing.

20:09:18 UTC

TJSJ TAF
Luis Munoz Marin International Airport
San Juan, Puerto Rico, USA
TJSJ 032320Z 0400/0424 VRB05KT P6SM FEW035 FEW050 FM041500 33008KT P6SM FEW030 FEW050 FM041800 35008KT P6SM VCSH SCT025 SCT050 FM042200 VRB04KT P6SM FEW035 SCT050

Apr-4@
00:00 UTC

Apr-4 @ 00:00 UTC

Apr-4@
15:00 UTC

Apr-4 @ 15:00 UTC

TAF TJSJ 032320Z 0400/0424 VRB05KT P6SM FEW035 FEW050

Expired

Wind
  • Variable at 5 KTS
Cloud Levels
  • Few at 3,500' AGL
  • Few at 5,000' AGL

Apr-4@
15:00 UTC

Apr-4 @ 15:00 UTC

Apr-4@
18:00 UTC

Apr-4 @ 18:00 UTC

FM041500 33008KT P6SM FEW030 FEW050

Expired

Wind
  • 330° at 8 KTS
Cloud Levels
  • Few at 3,000' AGL
  • Few at 5,000' AGL

Apr-4@
18:00 UTC

Apr-4 @ 18:00 UTC

Apr-4@
22:00 UTC

Apr-4 @ 22:00 UTC

FM041800 35008KT P6SM VCSH SCT025 SCT050

From

From Standard forecast or significant change

Wind
  • 350° at 8 KTS
Conditions
Area Showers
Cloud Levels
  • Scattered at 2,500' AGL
  • Scattered at 5,000' AGL

Apr-4@
22:00 UTC

Apr-4 @ 22:00 UTC

Apr-5@
00:00 UTC

Apr-5 @ 00:00 UTC

FM042200 VRB04KT P6SM FEW035 SCT050

From

From Standard forecast or significant change

Wind
  • Variable at 4 KTS
Cloud Levels
  • Few at 3,500' AGL
  • Scattered at 5,000' AGL